Tropical Cyclones
[Index]
Main Index Home Page Stock Weather Photos Extreme Storms Discussion Storm News and Storm Chasing Reports Tropical Cyclones / Hurricanes / Typhoons Weather Data and Links Wild Fires / Bushfires Weather Observation Techniques Weather Picture Catalogue Tornado Pictures and Reports Stock Video Footage and DVDs for sale
Season 1985-1986 Tropical Cyclone LUSI Track Map
Season 1985-1986 Summaries: [BoM-AU] [JTWC-AU] [JTWC-SIO] [JTWC-SPAC] [JTWC-SH]
<<- Previous TC | JTWC 1985-1986 Season | Next TC ->>

click for intensity scale information  Lat/long Grid: Show Hide

 Date Labels: Show Hide

Joint Typhoon Warning Centre Cyclone Data

Name: LUSI

02 Mar 1986 06:00 UTC to 08 Mar 1986 18:00 UTC

    date/time    lat    long     hPa   cat  kts
1986-03-02 06   20.8   162.2                  25          
1986-03-02 12   20.9   161.2                  25          
1986-03-02 18   20.8   160.4                  25          
1986-03-03 00   20.4   159.7                  25          
1986-03-03 06   20.0   159.3                  30          
1986-03-03 12   19.5   159.3                  30          
1986-03-03 18   19.0   159.8                  30          
1986-03-04 00   18.8   160.5                  30          
1986-03-04 06   18.7   161.2                  35          
1986-03-04 12   18.7   161.9                  35          
1986-03-04 18   18.7   162.7            1     40          
1986-03-05 00   18.6   163.4            1     45          
1986-03-05 06   18.6   164.2            1     45          
1986-03-05 12   18.6   164.8            1     45          
1986-03-05 18   18.6   165.3            1     45          
1986-03-06 00   18.7   165.9            1     45          
1986-03-06 06   18.8   166.6            1     45          
1986-03-06 12   19.0   167.4            1     45          
1986-03-06 18   19.4   168.4            1     45          
1986-03-07 00   19.9   169.7            1     45          
1986-03-07 06   20.6   171.2            1     45          
1986-03-07 12   21.3   172.9            1     45          
1986-03-07 18   22.1   174.7            1     45          
1986-03-08 00   23.0   176.3            1     45          
1986-03-08 06   24.1   177.8            1     40          
1986-03-08 12   25.3   179.0                  35          
1986-03-08 18   26.5   180.0                  30          
Winds are 1-min average.

Tropical cyclone tracks developed by Michael Bath using data from the Joint Typhoon Warning Centre Best Tracks and Google Maps.


[Australian Severe Weather index] [Copyright Notice] [Email Contacts] [Search This Site] [Privacy Policy]
Document: tropical_cyclone_lusi.htm Updated: 18 September 2016